createdAt,value
2023-01-23T00:00:53.062Z,102137.03
2023-01-23T00:01:54.723Z,102142.88
2023-01-23T00:02:59.067Z,102142.53
2023-01-23T00:04:01.002Z,102132.19
2023-01-23T00:05:04.061Z,102137.47
2023-01-23T00:06:08.586Z,102140.63
2023-01-23T00:07:11.502Z,102145.84
2023-01-23T00:08:13.126Z,102148.38
2023-01-23T00:09:15.717Z,102139.81
2023-01-23T00:10:17.787Z,102149.75
2023-01-23T00:11:22.646Z,102143.06
2023-01-23T00:12:24.242Z,102146.06
2023-01-23T00:13:27.450Z,102132.94
2023-01-23T00:14:29.132Z,102142.22
2023-01-23T00:15:33.228Z,102148.72
2023-01-23T00:16:35.928Z,102149.44
2023-01-23T00:17:40.327Z,102152.44
2023-01-23T00:18:43.404Z,102153.75
2023-01-23T00:19:45.981Z,102144.28
2023-01-23T00:20:47.854Z,102152.75
2023-01-23T00:21:52.967Z,102152.09
2023-01-23T00:22:55.000Z,102152.44
2023-01-23T00:23:59.021Z,102158.47
2023-01-23T00:25:00.635Z,102149.75
2023-01-23T00:26:04.978Z,102148.34
2023-01-23T00:27:07.649Z,102147.59
2023-01-23T00:28:09.278Z,102141.09
2023-01-23T00:29:12.077Z,102135.41
2023-01-23T00:30:13.841Z,102141.22
2023-01-23T00:31:18.519Z,102143.50
2023-01-23T00:32:20.308Z,102147.91
2023-01-23T00:33:22.908Z,102152.16
2023-01-23T00:34:25.948Z,102144.72
2023-01-23T00:35:28.552Z,102151.16
2023-01-23T00:36:31.940Z,102149.53
2023-01-23T00:37:34.528Z,102155.38
2023-01-23T00:38:36.465Z,102151.28
2023-01-23T00:39:39.140Z,102154.59
2023-01-23T00:40:40.860Z,102161.34
2023-01-23T00:41:43.545Z,102152.44
2023-01-23T00:42:45.272Z,102165.09
2023-01-23T00:43:48.523Z,102158.59
2023-01-23T00:44:50.123Z,102147.59
2023-01-23T00:45:53.043Z,102152.91
2023-01-23T00:46:55.610Z,102159.13
2023-01-23T00:47:57.435Z,102149.91
2023-01-23T00:49:00.022Z,102155.19
2023-01-23T00:50:02.966Z,102149.34
2023-01-23T00:51:06.522Z,102154.66
2023-01-23T00:52:08.118Z,102153.44
2023-01-23T00:53:10.713Z,102154.97
2023-01-23T00:54:12.674Z,102156.72
2023-01-23T00:55:15.260Z,102155.69
2023-01-23T00:56:17.031Z,102148.72
2023-01-23T00:57:19.640Z,102158.66
2023-01-23T00:58:21.792Z,102157.34
2023-01-23T00:59:24.610Z,102157.34
2023-01-23T01:00:26.720Z,102158.09
2023-01-23T01:01:31.531Z,102162.28
2023-01-23T01:02:33.398Z,102162.69
2023-01-23T01:03:36.958Z,102166.28
2023-01-23T01:04:38.663Z,102170.56
2023-01-23T01:05:42.964Z,102170.00
2023-01-23T01:06:44.751Z,102176.91
2023-01-23T01:07:47.420Z,102170.28
2023-01-23T01:08:49.456Z,102167.31
2023-01-23T01:09:52.331Z,102178.09
2023-01-23T01:10:54.157Z,102166.88
2023-01-23T01:11:56.672Z,102177.09
2023-01-23T01:13:00.208Z,102162.47
2023-01-23T01:14:04.030Z,102166.88
2023-01-23T01:15:08.345Z,102174.47
2023-01-23T01:16:12.525Z,102178.91
2023-01-23T01:17:14.109Z,102180.22
2023-01-23T01:18:17.392Z,102183.88
2023-01-23T01:19:19.210Z,102182.16
2023-01-23T01:20:23.630Z,102181.56
2023-01-23T01:21:26.766Z,102187.94
2023-01-23T01:22:29.496Z,102183.31
2023-01-23T01:23:31.346Z,102178.81
2023-01-23T01:24:33.951Z,102178.47
2023-01-23T01:25:35.903Z,102179.47
2023-01-23T01:26:38.487Z,102179.94
2023-01-23T01:27:40.174Z,102185.06
2023-01-23T01:28:43.680Z,102189.78
2023-01-23T01:29:45.326Z,102183.47
2023-01-23T01:30:47.930Z,102183.13
2023-01-23T01:31:49.681Z,102181.00
2023-01-23T01:32:52.295Z,102201.31
2023-01-23T01:33:54.094Z,102189.72
2023-01-23T01:34:56.658Z,102187.38
2023-01-23T01:35:58.270Z,102198.72
2023-01-23T01:37:03.175Z,102182.19
2023-01-23T01:38:04.819Z,102176.22
2023-01-23T01:39:07.458Z,102191.03
2023-01-23T01:40:13.429Z,102200.84
2023-01-23T01:41:16.360Z,102194.06
2023-01-23T01:42:18.000Z,102201.25
2023-01-23T01:43:22.734Z,102192.22
2023-01-23T01:44:26.167Z,102187.28
2023-01-23T01:46:04.357Z,102199.66
2023-01-23T01:47:08.016Z,102194.38
2023-01-23T01:48:09.747Z,102202.47
2023-01-23T01:49:15.701Z,102204.31
2023-01-23T01:50:17.783Z,102202.50
2023-01-23T01:51:26.873Z,102206.41
2023-01-23T01:52:29.896Z,102204.53
2023-01-23T01:53:34.559Z,102201.03
2023-01-23T01:54:41.912Z,102214.16
2023-01-23T01:55:45.027Z,102207.28
2023-01-23T01:56:52.091Z,102217.09
2023-01-23T01:57:54.821Z,102211.81
2023-01-23T01:58:58.556Z,102224.38
2023-01-23T02:00:07.076Z,102219.72
2023-01-23T02:01:09.396Z,102222.34
2023-01-23T02:02:15.529Z,102221.50
2023-01-23T02:03:19.590Z,102226.31
2023-01-23T02:04:22.358Z,102232.13
2023-01-23T02:05:27.857Z,102223.22
2023-01-23T02:06:30.673Z,102224.03
2023-01-23T02:07:38.714Z,102232.81
2023-01-23T02:08:48.396Z,102231.25
2023-01-23T02:09:50.232Z,102231.44
2023-01-23T02:10:53.841Z,102237.91
2023-01-23T02:11:56.553Z,102233.78
2023-01-23T02:13:23.861Z,102236.63
2023-01-23T02:14:26.572Z,102237.81
2023-01-23T02:15:28.200Z,102244.84
2023-01-23T02:16:40.263Z,102235.25
2023-01-23T02:17:43.373Z,102223.69
2023-01-23T02:18:48.263Z,102233.22
2023-01-23T02:20:02.253Z,102241.81
2023-01-23T02:21:07.782Z,102227.13
2023-01-23T02:22:22.251Z,102228.97
2023-01-23T02:23:36.553Z,102232.94
2023-01-23T02:24:49.005Z,102226.44
2023-01-23T02:25:56.179Z,102236.56
2023-01-23T02:26:58.862Z,102231.72
2023-01-23T02:28:01.495Z,102217.16
2023-01-23T02:29:05.076Z,102200.53
2023-01-23T02:30:08.676Z,102217.91
2023-01-23T02:31:11.727Z,102201.03
2023-01-23T02:32:13.377Z,102234.72
2023-01-23T02:33:51.019Z,102228.47
2023-01-23T02:34:58.508Z,102229.88
2023-01-23T02:36:00.329Z,102229.22
2023-01-23T02:37:03.334Z,102233.88
2023-01-23T02:38:06.494Z,102240.00
2023-01-23T02:39:11.408Z,102242.50
2023-01-23T02:40:13.636Z,102236.75
2023-01-23T02:41:21.734Z,102233.13
2023-01-23T02:42:26.173Z,102233.22
2023-01-23T02:43:35.209Z,102230.16
2023-01-23T02:44:37.763Z,102239.06
2023-01-23T02:45:41.609Z,102225.59
2023-01-23T02:46:44.301Z,102229.41
2023-01-23T02:47:45.901Z,102234.34
2023-01-23T02:48:48.945Z,102238.16
2023-01-23T02:49:51.448Z,102227.47
2023-01-23T02:50:53.278Z,102237.50
2023-01-23T02:51:57.089Z,102237.38
2023-01-23T02:52:58.838Z,102236.44
2023-01-23T02:54:01.682Z,102233.91
2023-01-23T02:55:03.821Z,102239.88
2023-01-23T02:56:07.154Z,102234.09
2023-01-23T02:57:10.280Z,102232.38
2023-01-23T02:58:30.385Z,102239.63
2023-01-23T02:59:50.285Z,102238.09
2023-01-23T03:00:53.179Z,102238.66
2023-01-23T03:01:55.488Z,102242.16
2023-01-23T03:02:58.298Z,102246.03
2023-01-23T03:04:04.241Z,102231.47
2023-01-23T03:05:08.171Z,102240.44
2023-01-23T03:06:10.840Z,102246.47
2023-01-23T03:07:13.539Z,102242.66
2023-01-23T03:08:15.247Z,102225.94
2023-01-23T03:09:19.311Z,102246.75
2023-01-23T03:10:21.364Z,102244.97
2023-01-23T03:11:25.809Z,102253.41
2023-01-23T03:12:29.934Z,102228.69
2023-01-23T03:13:33.055Z,102224.56
2023-01-23T03:14:36.240Z,102214.38
2023-01-23T03:15:38.540Z,102244.22
2023-01-23T03:16:42.958Z,102241.00
2023-01-23T03:17:44.884Z,102214.63
2023-01-23T03:18:54.799Z,102217.22
2023-01-23T03:19:58.021Z,102221.13
2023-01-23T03:21:02.619Z,102227.34
2023-01-23T03:22:05.273Z,102231.78
2023-01-23T03:23:07.089Z,102248.31
2023-01-23T03:24:11.962Z,102227.47
2023-01-23T03:25:13.806Z,102224.06
2023-01-23T03:26:18.161Z,102233.75
2023-01-23T03:27:21.072Z,102251.16
2023-01-23T03:28:42.786Z,102220.34
2023-01-23T03:30:02.913Z,102238.75
2023-01-23T03:31:04.986Z,102241.97
2023-01-23T03:32:08.848Z,102225.88
2023-01-23T03:33:10.793Z,102253.28
2023-01-23T03:34:13.685Z,102251.78
2023-01-23T03:35:16.799Z,102216.16
2023-01-23T03:36:19.517Z,102246.19
2023-01-23T03:37:22.425Z,102243.06
2023-01-23T03:38:24.294Z,102232.16
2023-01-23T03:39:44.915Z,102230.59
2023-01-23T03:41:08.886Z,102225.44
2023-01-23T03:42:11.839Z,102256.81
2023-01-23T03:43:13.799Z,102264.75
2023-01-23T03:44:20.188Z,102234.56
2023-01-23T03:45:22.121Z,102229.28
2023-01-23T03:46:25.152Z,102248.72
2023-01-23T03:47:27.362Z,102257.81
2023-01-23T03:48:30.282Z,102273.22
2023-01-23T03:49:32.431Z,102259.34
2023-01-23T03:50:35.185Z,102240.34
2023-01-23T03:51:37.093Z,102274.34
2023-01-23T03:52:39.907Z,102229.78
2023-01-23T03:53:41.647Z,102266.53
2023-01-23T03:54:44.349Z,102252.00
2023-01-23T03:55:46.783Z,102243.19
2023-01-23T03:56:49.687Z,102246.72
2023-01-23T03:57:52.522Z,102278.72
2023-01-23T03:58:55.386Z,102246.00
2023-01-23T03:59:59.720Z,102234.38
2023-01-23T04:01:03.577Z,102271.28
2023-01-23T04:02:07.105Z,102277.44
2023-01-23T04:03:08.879Z,102273.69
2023-01-23T04:04:11.911Z,102278.53
2023-01-23T04:05:13.776Z,102237.41
2023-01-23T04:06:16.705Z,102255.69
2023-01-23T04:07:19.735Z,102239.94
2023-01-23T04:08:22.906Z,102252.78
2023-01-23T04:09:27.973Z,102270.81
2023-01-23T04:10:30.213Z,102248.19
2023-01-23T04:11:33.200Z,102276.13
2023-01-23T04:12:34.912Z,102237.56
2023-01-23T04:13:39.689Z,102258.09
2023-01-23T04:14:44.636Z,102231.03
2023-01-23T04:15:48.696Z,102256.69
2023-01-23T04:16:51.454Z,102252.97
2023-01-23T04:17:54.301Z,102236.34
2023-01-23T04:18:56.573Z,102271.16
2023-01-23T04:19:59.313Z,102245.81
2023-01-23T04:21:01.288Z,102270.38
2023-01-23T04:22:05.086Z,102240.66
2023-01-23T04:23:06.957Z,102233.75
2023-01-23T04:24:09.811Z,102262.06
2023-01-23T04:25:11.560Z,102248.81
2023-01-23T04:26:14.531Z,102265.25
2023-01-23T04:27:16.231Z,102256.31
2023-01-23T04:28:19.579Z,102268.63
2023-01-23T04:29:21.314Z,102240.00
2023-01-23T04:30:24.211Z,102256.16
2023-01-23T04:31:27.338Z,102242.09
2023-01-23T04:32:30.084Z,102228.63
2023-01-23T04:33:32.094Z,102251.13
2023-01-23T04:34:34.941Z,102266.00
2023-01-23T04:35:36.719Z,102236.19
2023-01-23T04:36:39.827Z,102244.53
2023-01-23T04:37:41.743Z,102253.50
2023-01-23T04:38:44.531Z,102249.19
2023-01-23T04:39:46.478Z,102265.69
2023-01-23T04:40:49.701Z,102237.00
2023-01-23T04:41:51.637Z,102238.78
2023-01-23T04:42:54.598Z,102256.13
2023-01-23T04:43:56.506Z,102272.88
2023-01-23T04:44:59.177Z,102265.59
2023-01-23T04:46:01.217Z,102262.63
2023-01-23T04:47:05.374Z,102272.88
2023-01-23T04:48:07.488Z,102275.69
2023-01-23T04:49:10.195Z,102278.59
2023-01-23T04:50:12.007Z,102286.25
2023-01-23T04:51:15.228Z,102246.97
2023-01-23T04:52:17.006Z,102271.16
2023-01-23T04:53:20.742Z,102266.97
2023-01-23T04:54:22.556Z,102265.88
2023-01-23T04:55:25.497Z,102267.03
2023-01-23T04:56:27.349Z,102286.53
2023-01-23T04:57:30.146Z,102283.78
2023-01-23T04:58:31.931Z,102258.25
2023-01-23T04:59:34.893Z,102263.78
2023-01-23T05:00:37.309Z,102267.22
2023-01-23T05:01:40.740Z,102288.16
2023-01-23T05:02:46.156Z,102289.50
2023-01-23T05:03:49.314Z,102308.50
2023-01-23T05:04:51.473Z,102275.41
2023-01-23T05:05:54.649Z,102278.59
2023-01-23T05:06:56.496Z,102276.28
2023-01-23T05:07:59.679Z,102315.66
2023-01-23T05:09:01.568Z,102271.91
2023-01-23T05:10:05.117Z,102285.81
2023-01-23T05:11:06.872Z,102288.06
2023-01-23T05:12:09.696Z,102278.50
2023-01-23T05:13:11.734Z,102275.56
2023-01-23T05:14:14.581Z,102307.88
2023-01-23T05:15:17.392Z,102289.06
2023-01-23T05:16:20.324Z,102289.16
2023-01-23T05:17:22.209Z,102321.94
2023-01-23T05:18:26.654Z,102320.81
2023-01-23T05:19:28.435Z,102289.78
2023-01-23T05:20:31.335Z,102319.78
2023-01-23T05:21:33.649Z,102311.97
2023-01-23T05:22:36.895Z,102313.34
2023-01-23T05:23:38.709Z,102286.25
2023-01-23T05:24:41.524Z,102306.16
2023-01-23T05:25:43.573Z,102318.38
2023-01-23T05:26:46.406Z,102286.16
2023-01-23T05:27:48.278Z,102311.31
2023-01-23T05:28:53.886Z,102294.44
2023-01-23T05:29:57.019Z,102329.78
2023-01-23T05:30:58.986Z,102305.06
2023-01-23T05:32:15.548Z,102340.69
2023-01-23T05:33:17.619Z,102332.69
2023-01-23T05:34:24.842Z,102339.97
2023-01-23T05:35:26.723Z,102333.72
2023-01-23T05:36:29.477Z,102304.78
2023-01-23T05:37:31.394Z,102303.16
2023-01-23T05:38:34.756Z,102321.03
2023-01-23T05:39:36.624Z,102299.50
2023-01-23T05:40:41.256Z,102338.22
2023-01-23T05:41:43.539Z,102321.66
2023-01-23T05:42:46.776Z,102329.78
2023-01-23T05:43:50.034Z,102315.78
2023-01-23T05:44:53.037Z,102338.28
2023-01-23T05:45:54.880Z,102329.72
2023-01-23T05:47:00.461Z,102337.19
2023-01-23T05:48:02.415Z,102339.94
2023-01-23T05:49:05.452Z,102332.28
2023-01-23T05:50:15.162Z,102306.56
2023-01-23T05:51:18.901Z,102310.91
2023-01-23T05:52:25.294Z,102295.72
2023-01-23T05:53:28.448Z,102325.59
2023-01-23T05:54:31.320Z,102310.19
2023-01-23T05:55:34.191Z,102335.66
2023-01-23T05:56:35.915Z,102304.13
2023-01-23T05:57:38.825Z,102306.69
2023-01-23T05:58:40.766Z,102335.06
2023-01-23T05:59:43.654Z,102346.22
2023-01-23T06:00:46.897Z,102347.75
2023-01-23T06:01:50.012Z,102312.53
2023-01-23T06:02:52.111Z,102311.16
2023-01-23T06:03:55.226Z,102344.25
2023-01-23T06:04:58.974Z,102302.81
2023-01-23T06:06:03.858Z,102331.81
2023-01-23T06:07:09.402Z,102309.66
2023-01-23T06:08:12.383Z,102345.66
2023-01-23T06:09:14.241Z,102317.00
2023-01-23T06:10:17.493Z,102316.03
2023-01-23T06:11:19.470Z,102315.34
2023-01-23T06:12:22.370Z,102304.97
2023-01-23T06:13:24.815Z,102330.88
2023-01-23T06:14:28.031Z,102339.19
2023-01-23T06:15:30.966Z,102348.47
2023-01-23T06:16:33.536Z,102313.78
2023-01-23T06:17:36.524Z,102352.31
2023-01-23T06:18:38.420Z,102313.50
2023-01-23T06:19:42.449Z,102329.06
2023-01-23T06:20:44.201Z,102360.31
2023-01-23T06:21:48.767Z,102326.03
2023-01-23T06:22:51.116Z,102322.97
2023-01-23T06:23:53.925Z,102353.34
2023-01-23T06:24:57.249Z,102320.50
2023-01-23T06:26:00.937Z,102362.19
2023-01-23T06:27:08.212Z,102333.19
2023-01-23T06:28:09.947Z,102366.56
2023-01-23T06:29:12.686Z,102345.00
2023-01-23T06:30:15.598Z,102327.41
2023-01-23T06:31:19.072Z,102332.50
2023-01-23T06:32:23.595Z,102348.78
2023-01-23T06:33:26.574Z,102366.47
2023-01-23T06:34:28.311Z,102366.69
2023-01-23T06:35:31.112Z,102381.19
2023-01-23T06:36:34.786Z,102349.25
2023-01-23T06:37:43.311Z,102354.13
2023-01-23T06:38:45.248Z,102357.81
2023-01-23T06:39:48.233Z,102378.59
2023-01-23T06:40:50.141Z,102352.19
2023-01-23T06:41:52.889Z,102364.28
2023-01-23T06:42:57.715Z,102352.84
2023-01-23T06:44:00.622Z,102354.72
2023-01-23T06:45:02.624Z,102365.63
2023-01-23T06:46:05.962Z,102392.91
2023-01-23T06:47:10.741Z,102377.94
2023-01-23T06:48:14.186Z,102389.34
2023-01-23T06:49:17.005Z,102363.25
2023-01-23T06:50:19.369Z,102356.72
2023-01-23T06:51:22.871Z,102373.91
2023-01-23T06:52:26.822Z,102389.88
2023-01-23T06:53:30.598Z,102389.63
2023-01-23T06:54:33.833Z,102360.22
2023-01-23T06:55:36.040Z,102367.66
2023-01-23T06:56:39.274Z,102396.03
2023-01-23T06:57:41.004Z,102367.41
2023-01-23T06:58:45.803Z,102370.91
2023-01-23T06:59:47.765Z,102386.34
2023-01-23T07:00:50.545Z,102377.44
2023-01-23T07:01:53.937Z,102376.50
2023-01-23T07:02:59.118Z,102365.25
2023-01-23T07:04:01.930Z,102380.28
2023-01-23T07:05:04.950Z,102412.72
2023-01-23T07:06:07.608Z,102408.22
2023-01-23T07:07:10.508Z,102416.59
2023-01-23T07:08:12.792Z,102375.00
2023-01-23T07:09:17.147Z,102393.91
2023-01-23T07:10:20.531Z,102393.59
2023-01-23T07:11:22.879Z,102384.09
2023-01-23T07:12:26.236Z,102413.44
2023-01-23T07:13:28.703Z,102385.84
2023-01-23T07:14:33.472Z,102402.25
2023-01-23T07:15:41.105Z,102427.81
2023-01-23T07:16:49.613Z,102432.88
2023-01-23T07:17:51.754Z,102434.91
2023-01-23T07:19:01.692Z,102401.19
2023-01-23T07:20:05.261Z,102434.72
2023-01-23T07:21:08.936Z,102436.50
2023-01-23T07:22:11.871Z,102413.34
2023-01-23T07:23:15.100Z,102433.50
2023-01-23T07:24:22.036Z,102431.19
2023-01-23T07:25:25.251Z,102430.56
2023-01-23T07:26:28.079Z,102412.16
2023-01-23T07:27:33.498Z,102439.59
2023-01-23T07:28:38.195Z,102411.72
2023-01-23T07:29:41.932Z,102448.09
2023-01-23T07:30:48.779Z,102405.69
2023-01-23T07:31:51.391Z,102451.22
2023-01-23T07:32:55.132Z,102433.53
2023-01-23T07:33:57.633Z,102447.31
2023-01-23T07:35:05.679Z,102443.59
2023-01-23T07:36:09.878Z,102449.53
2023-01-23T07:37:12.630Z,102416.75
2023-01-23T07:38:16.612Z,102425.56
2023-01-23T07:39:22.270Z,102419.59
2023-01-23T07:40:26.387Z,102421.56
2023-01-23T07:41:28.638Z,102438.25
2023-01-23T07:42:32.547Z,102439.09
2023-01-23T07:43:36.130Z,102436.66
2023-01-23T07:44:41.120Z,102462.09
2023-01-23T07:45:44.863Z,102460.72
2023-01-23T07:46:49.899Z,102432.97
2023-01-23T07:47:52.479Z,102431.31
2023-01-23T07:48:56.495Z,102441.22
2023-01-23T07:49:59.555Z,102448.38
2023-01-23T07:51:04.640Z,102467.75
2023-01-23T07:52:08.431Z,102428.75
2023-01-23T07:53:11.125Z,102445.47
2023-01-23T07:54:15.050Z,102435.94
2023-01-23T07:55:19.450Z,102465.28
2023-01-23T07:56:25.434Z,102473.88
2023-01-23T07:57:27.747Z,102483.50
2023-01-23T07:58:31.446Z,102466.16
2023-01-23T07:59:33.949Z,102446.94
2023-01-23T08:00:37.299Z,102451.91
2023-01-23T08:01:40.615Z,102442.88
2023-01-23T08:02:43.389Z,102474.00
2023-01-23T08:03:46.812Z,102443.59
2023-01-23T08:04:51.035Z,102444.28
2023-01-23T08:05:54.916Z,102423.28
2023-01-23T08:06:58.970Z,102434.25
2023-01-23T08:08:13.136Z,102467.94
2023-01-23T08:09:17.466Z,102454.66
2023-01-23T08:10:26.320Z,102448.66
2023-01-23T08:11:30.176Z,102456.75
2023-01-23T08:12:36.297Z,102435.50
2023-01-23T08:13:43.026Z,102463.19
2023-01-23T08:14:52.168Z,102474.66
2023-01-23T08:15:54.908Z,102448.16
2023-01-23T08:16:58.824Z,102450.19
2023-01-23T08:18:02.160Z,102472.97
2023-01-23T08:19:08.501Z,102457.41
2023-01-23T08:20:15.596Z,102443.69
2023-01-23T08:21:18.469Z,102439.75
2023-01-23T08:22:23.772Z,102438.31
2023-01-23T08:23:31.904Z,102464.44
2023-01-23T08:24:38.509Z,102478.41
2023-01-23T08:25:43.145Z,102451.13
2023-01-23T08:26:53.377Z,102447.63
2023-01-23T08:27:56.295Z,102451.75
2023-01-23T08:29:02.891Z,102445.28
2023-01-23T08:30:08.615Z,102444.84
2023-01-23T08:31:14.602Z,102467.66
2023-01-23T08:32:18.212Z,102454.66
2023-01-23T08:33:23.337Z,102460.31
2023-01-23T08:34:27.347Z,102481.59
2023-01-23T08:35:29.167Z,102488.44
2023-01-23T08:36:32.123Z,102456.78
2023-01-23T08:37:34.587Z,102485.63
2023-01-23T08:38:37.396Z,102502.50
2023-01-23T08:39:40.426Z,102462.22
2023-01-23T08:40:43.723Z,102496.16
2023-01-23T08:41:46.506Z,102492.78
2023-01-23T08:42:49.155Z,102486.75
2023-01-23T08:43:51.921Z,102498.28
2023-01-23T08:44:54.850Z,102497.47
2023-01-23T08:55:04.093Z,102505.22
2023-01-23T08:56:09.722Z,102506.91
2023-01-23T08:57:12.810Z,102510.63
2023-01-23T08:58:14.655Z,102505.53
2023-01-23T08:59:17.321Z,102475.97
2023-01-23T09:00:21.486Z,102492.03
2023-01-23T09:01:26.649Z,102517.47
2023-01-23T09:02:29.406Z,102485.25
2023-01-23T09:03:32.239Z,102505.75
2023-01-23T09:04:35.299Z,102489.88
2023-01-23T09:05:38.001Z,102499.25
2023-01-23T09:06:40.916Z,102499.97
2023-01-23T09:07:42.767Z,102513.25
2023-01-23T09:08:46.214Z,102511.00
2023-01-23T09:09:52.672Z,102503.50
2023-01-23T09:10:56.679Z,102508.25
2023-01-23T09:12:00.771Z,102493.13
2023-01-23T09:13:02.565Z,102488.28
2023-01-23T09:14:05.312Z,102520.75
2023-01-23T09:15:08.304Z,102494.25
2023-01-23T09:16:11.089Z,102518.63
2023-01-23T09:17:13.822Z,102522.13
2023-01-23T09:18:18.267Z,102529.56
2023-01-23T09:19:21.058Z,102530.09
2023-01-23T09:20:26.166Z,102506.41
2023-01-23T09:21:29.138Z,102522.47
2023-01-23T09:22:30.914Z,102496.03
2023-01-23T09:23:36.730Z,102524.59
2023-01-23T09:24:38.399Z,102489.53
2023-01-23T09:25:41.785Z,102499.00
2023-01-23T09:26:43.742Z,102519.06
2023-01-23T09:27:48.063Z,102500.13
2023-01-23T09:28:51.534Z,102518.03
2023-01-23T09:29:54.706Z,102517.81
2023-01-23T09:30:57.744Z,102525.09
2023-01-23T09:32:00.571Z,102514.50
2023-01-23T09:33:03.486Z,102500.09
2023-01-23T09:34:07.959Z,102516.94
2023-01-23T09:35:11.498Z,102499.19
2023-01-23T09:36:14.230Z,102497.69
2023-01-23T09:37:17.061Z,102529.44
2023-01-23T09:38:18.939Z,102498.34
2023-01-23T09:39:22.090Z,102495.41
2023-01-23T09:40:25.245Z,102502.88
2023-01-23T09:41:30.061Z,102491.66
2023-01-23T09:42:34.709Z,102505.41
2023-01-23T09:43:45.370Z,102522.91
2023-01-23T09:44:54.057Z,102520.56
2023-01-23T09:46:05.312Z,102492.22
2023-01-23T09:47:14.487Z,102489.13
2023-01-23T09:48:23.207Z,102504.72
2023-01-23T09:49:29.365Z,102500.09
2023-01-23T09:50:39.183Z,102498.81
2023-01-23T09:51:53.624Z,102488.56
2023-01-23T09:53:00.467Z,102499.91
2023-01-23T09:54:13.509Z,102522.91
2023-01-23T09:55:22.361Z,102521.97
2023-01-23T09:56:31.299Z,102515.88
2023-01-23T09:57:38.131Z,102512.16
2023-01-23T09:58:47.121Z,102504.16
2023-01-23T10:00:00.171Z,102485.00
2023-01-23T10:01:03.754Z,102504.56
2023-01-23T10:02:16.432Z,102510.59
2023-01-23T10:03:19.498Z,102488.50
2023-01-23T10:04:21.405Z,102526.63
2023-01-23T10:05:33.809Z,102505.94
2023-01-23T10:07:00.137Z,102525.69
2023-01-23T10:08:11.426Z,102491.22
2023-01-23T10:09:29.021Z,102511.00
2023-01-23T10:10:43.131Z,102500.25
2023-01-23T10:11:55.505Z,102530.72
2023-01-23T10:13:08.048Z,102515.28
2023-01-23T10:14:40.304Z,102515.22
2023-01-23T10:16:02.864Z,102502.44
2023-01-23T10:17:13.861Z,102497.31
2023-01-23T10:18:24.625Z,102484.31
2023-01-23T10:19:52.305Z,102517.06
2023-01-23T10:21:12.084Z,102526.44
2023-01-23T10:22:33.596Z,102490.84
2023-01-23T10:23:46.425Z,102499.59
2023-01-23T10:24:52.131Z,102501.03
2023-01-23T10:25:55.477Z,102485.19
2023-01-23T10:27:04.958Z,102505.34
2023-01-23T10:28:25.160Z,102518.63
2023-01-23T10:29:32.678Z,102508.69
2023-01-23T10:30:38.665Z,102503.72
2023-01-23T10:31:46.655Z,102485.00
2023-01-23T10:32:54.247Z,102491.63
2023-01-23T10:34:05.449Z,102500.44
2023-01-23T10:35:13.332Z,102472.53
2023-01-23T10:36:27.386Z,102502.09
2023-01-23T10:37:41.795Z,102471.78
2023-01-23T10:38:51.341Z,102486.66
2023-01-23T10:39:59.156Z,102475.34
2023-01-23T10:41:23.341Z,102504.72
2023-01-23T10:42:29.151Z,102468.41
2023-01-23T10:43:33.561Z,102503.72
2023-01-23T10:44:38.065Z,102503.56
2023-01-23T10:45:41.929Z,102469.22
2023-01-23T10:46:49.625Z,102486.31
2023-01-23T10:47:55.101Z,102490.66
2023-01-23T10:49:01.511Z,102486.28
2023-01-23T10:50:05.166Z,102488.75
2023-01-23T10:51:27.372Z,102465.38
2023-01-23T10:52:35.044Z,102499.16
2023-01-23T10:53:37.446Z,102459.22
2023-01-23T10:54:48.254Z,102482.47
2023-01-23T10:55:52.255Z,102501.13
2023-01-23T10:56:59.820Z,102480.03
2023-01-23T10:58:03.405Z,102461.34
2023-01-23T10:59:08.627Z,102491.34
2023-01-23T11:00:23.621Z,102488.75
2023-01-23T11:01:27.960Z,102467.34
2023-01-23T11:02:37.442Z,102492.56
2023-01-23T11:03:45.980Z,102468.19
2023-01-23T11:04:51.954Z,102466.50
2023-01-23T11:05:55.474Z,102466.03
2023-01-23T11:07:03.940Z,102490.78
2023-01-23T11:08:24.159Z,102468.41
2023-01-23T11:09:27.454Z,102498.94
2023-01-23T11:10:30.479Z,102477.13
2023-01-23T11:11:34.576Z,102497.66
2023-01-23T11:12:49.085Z,102515.28
2023-01-23T11:14:04.280Z,102491.88
2023-01-23T11:15:25.386Z,102505.28
2023-01-23T11:16:28.081Z,102494.09
2023-01-23T11:17:34.761Z,102491.28
2023-01-23T11:18:43.133Z,102517.84
2023-01-23T11:19:48.064Z,102508.88
2023-01-23T11:20:55.725Z,102491.41
2023-01-23T11:21:59.926Z,102486.94
2023-01-23T11:23:15.058Z,102511.09
2023-01-23T11:24:24.834Z,102480.66
2023-01-23T11:25:36.883Z,102508.22
2023-01-23T11:26:39.271Z,102516.19
2023-01-23T11:27:42.050Z,102500.69
2023-01-23T11:28:54.561Z,102476.69
2023-01-23T11:30:35.241Z,102477.59
2023-01-23T11:31:48.734Z,102509.13
2023-01-23T11:32:57.872Z,102482.13
2023-01-23T11:34:10.723Z,102506.09
2023-01-23T11:35:17.027Z,102508.94
2023-01-23T11:36:39.609Z,102483.97
2023-01-23T11:37:44.667Z,102498.50
2023-01-23T11:38:53.270Z,102494.97
2023-01-23T11:40:01.711Z,102468.81
2023-01-23T11:41:06.203Z,102473.50
2023-01-23T11:42:12.064Z,102483.97
2023-01-23T11:43:15.940Z,102477.63
2023-01-23T11:44:22.696Z,102472.16
2023-01-23T11:45:40.157Z,102500.59
2023-01-23T11:46:57.253Z,102479.03
2023-01-23T11:48:10.721Z,102465.25
2023-01-23T11:49:29.423Z,102464.66
2023-01-23T11:50:54.129Z,102479.91
2023-01-23T11:52:12.437Z,102495.53
2023-01-23T11:53:33.523Z,102491.06
2023-01-23T11:55:01.132Z,102453.28
2023-01-23T11:56:23.519Z,102459.34
2023-01-23T11:57:36.819Z,102491.50
2023-01-23T11:59:14.389Z,102478.28
2023-01-23T12:00:33.901Z,102484.47
2023-01-23T12:01:49.313Z,102453.66
2023-01-23T12:03:21.831Z,102484.22
2023-01-23T12:04:42.525Z,102475.69
2023-01-23T12:07:24.652Z,102471.13
2023-01-23T12:08:37.224Z,102500.94
2023-01-23T12:09:53.098Z,102501.22
2023-01-23T12:11:12.471Z,102468.25
2023-01-23T12:12:25.718Z,102479.09
2023-01-23T12:13:54.257Z,102486.84
2023-01-23T12:15:05.617Z,102469.25
2023-01-23T12:16:18.259Z,102462.34
2023-01-23T12:17:34.566Z,102482.75
2023-01-23T12:18:49.329Z,102489.69
2023-01-23T12:20:03.507Z,102481.84
2023-01-23T12:21:14.679Z,102485.06
2023-01-23T12:22:29.803Z,102452.91
2023-01-23T12:23:50.005Z,102488.56
2023-01-23T12:25:07.815Z,102465.06
2023-01-23T12:26:15.354Z,102484.59
2023-01-23T12:27:29.356Z,102450.84
2023-01-23T12:29:03.820Z,102482.94
2023-01-23T12:30:25.983Z,102491.59
2023-01-23T12:31:45.044Z,102485.25
2023-01-23T12:32:58.960Z,102461.59
2023-01-23T12:34:23.492Z,102489.13
2023-01-23T12:35:36.959Z,102461.44
2023-01-23T12:37:08.609Z,102476.34
2023-01-23T12:38:34.397Z,102447.41
2023-01-23T12:40:03.664Z,102462.03
2023-01-23T12:41:16.255Z,102437.84